createdAt,value
2023-11-27T00:00:29.115Z,0.45
2023-11-27T00:03:02.388Z,0.35
2023-11-27T00:05:30.595Z,0.47
2023-11-27T00:07:58.632Z,0.25
2023-11-27T00:10:26.761Z,0.10
2023-11-27T00:13:01.072Z,0.30
2023-11-27T00:15:29.663Z,0.20
2023-11-27T00:17:57.657Z,0.22
2023-11-27T00:20:25.727Z,0.52
2023-11-27T00:22:55.167Z,0.50
2023-11-27T00:25:23.968Z,0.30
2023-11-27T00:27:52.268Z,0.10
2023-11-27T00:30:20.401Z,0.05
2023-11-27T00:32:48.410Z,0.20
2023-11-27T00:35:17.080Z,0.13
2023-11-27T00:37:45.430Z,0.10
2023-11-27T00:40:13.629Z,0.30
2023-11-27T00:42:41.720Z,0.22
2023-11-27T00:45:10.192Z,0.25
2023-11-27T00:47:38.331Z,0.30
2023-11-27T00:50:07.124Z,0.08
2023-11-27T00:52:53.571Z,0.20
2023-11-27T00:55:21.654Z,0.40
2023-11-27T00:57:49.770Z,0.50
2023-11-27T01:00:19.290Z,0.40
2023-11-27T01:02:47.438Z,0.10
2023-11-27T01:05:15.960Z,0.10
2023-11-27T01:07:44.047Z,0.20
2023-11-27T01:10:12.794Z,0.10
2023-11-27T01:12:44.679Z,0.25
2023-11-27T01:15:13.465Z,0.10
2023-11-27T01:17:42.684Z,0.17
2023-11-27T01:20:14.000Z,0.10
2023-11-27T01:22:42.264Z,0.22
2023-11-27T01:25:11.775Z,0.03
2023-11-27T01:27:40.306Z,0.20
2023-11-27T01:30:27.447Z,0.20
2023-11-27T01:32:55.550Z,0.20
2023-11-27T01:35:23.712Z,0.17
2023-11-27T01:37:51.833Z,0.30
2023-11-27T01:40:20.026Z,0.30
2023-11-27T01:42:48.126Z,0.10
2023-11-27T01:45:16.573Z,0.40
2023-11-27T01:47:44.799Z,0.20
2023-11-27T01:50:13.047Z,0.20
2023-11-27T01:52:41.443Z,0.20
2023-11-27T01:55:13.354Z,0.05
2023-11-27T01:57:41.877Z,0.20
2023-11-27T02:00:13.059Z,0.10
2023-11-27T02:02:47.805Z,0.30
2023-11-27T02:05:16.384Z,0.20
2023-11-27T02:07:44.664Z,0.30
2023-11-27T02:10:14.008Z,0.30
2023-11-27T02:12:42.114Z,0.20
2023-11-27T02:15:28.643Z,0.10
2023-11-27T02:17:56.753Z,0.20
2023-11-27T02:20:25.112Z,0.40
2023-11-27T02:22:53.225Z,0.25
2023-11-27T02:25:21.335Z,0.10
2023-11-27T02:28:08.610Z,0.30
2023-11-27T02:30:36.717Z,0.20
2023-11-27T02:33:04.766Z,0.25
2023-11-27T02:35:35.282Z,0.00
2023-11-27T02:38:03.723Z,0.10
2023-11-27T02:40:31.903Z,0.30
2023-11-27T02:43:00.854Z,0.17
2023-11-27T02:45:29.780Z,0.20
2023-11-27T02:47:58.696Z,0.22
2023-11-27T02:50:26.737Z,0.10
2023-11-27T02:52:54.957Z,0.30
2023-11-27T02:55:23.322Z,0.30
2023-11-27T02:57:51.552Z,0.15
2023-11-27T03:00:20.178Z,0.10
2023-11-27T03:02:48.380Z,0.10
2023-11-27T03:05:16.801Z,0.10
2023-11-27T03:07:46.349Z,0.20
2023-11-27T03:10:14.871Z,0.10
2023-11-27T03:12:43.634Z,0.13
2023-11-27T03:15:11.922Z,0.10
2023-11-27T03:17:42.382Z,0.30
2023-11-27T03:20:12.446Z,0.38
2023-11-27T03:22:41.844Z,0.35
2023-11-27T03:25:10.639Z,0.20
2023-11-27T03:27:39.392Z,0.30
2023-11-27T03:30:08.100Z,0.20
2023-11-27T03:32:36.154Z,0.17
2023-11-27T03:35:06.359Z,0.30
2023-11-27T03:37:34.410Z,0.15
2023-11-27T03:40:04.301Z,0.30
2023-11-27T03:42:33.422Z,0.10
2023-11-27T03:45:02.687Z,0.38
2023-11-27T03:47:30.922Z,0.30
2023-11-27T03:49:59.468Z,0.15
2023-11-27T03:52:27.569Z,0.20
2023-11-27T03:54:55.589Z,0.38
2023-11-27T03:57:24.137Z,0.15
2023-11-27T03:59:52.330Z,0.17
2023-11-27T04:02:20.477Z,0.10
2023-11-27T04:04:48.491Z,0.20
2023-11-27T04:07:16.679Z,0.20
2023-11-27T04:09:44.780Z,0.10
2023-11-27T04:12:13.186Z,0.43
2023-11-27T04:14:41.677Z,0.10
2023-11-27T04:17:09.894Z,0.20
2023-11-27T04:19:38.937Z,0.20
2023-11-27T04:22:07.133Z,0.20
2023-11-27T04:24:35.223Z,0.10
2023-11-27T04:27:03.304Z,0.75
2023-11-27T04:29:31.639Z,0.22
2023-11-27T04:31:59.805Z,0.10
2023-11-27T04:34:28.013Z,0.10
2023-11-27T04:36:56.123Z,0.20
2023-11-27T04:39:24.595Z,0.20
2023-11-27T04:41:52.730Z,0.30
2023-11-27T04:44:25.265Z,0.40
2023-11-27T04:46:54.590Z,0.20
2023-11-27T04:49:22.744Z,0.00
2023-11-27T04:54:36.473Z,0.30
2023-11-27T04:59:50.697Z,0.10
2023-11-27T05:02:37.462Z,0.20
2023-11-27T05:05:05.547Z,0.20
2023-11-27T05:07:33.618Z,0.30
2023-11-27T05:10:01.679Z,0.20
2023-11-27T05:12:33.327Z,0.15
2023-11-27T05:15:03.470Z,0.10
2023-11-27T05:17:32.777Z,0.30
2023-11-27T05:20:00.957Z,0.38
2023-11-27T05:22:29.170Z,0.20
2023-11-27T05:24:57.370Z,0.30
2023-11-27T05:27:25.540Z,0.10
2023-11-27T05:29:53.584Z,0.20
2023-11-27T05:32:23.519Z,0.20
2023-11-27T05:34:51.711Z,0.20
2023-11-27T05:37:19.878Z,0.10
2023-11-27T05:39:47.983Z,0.30
2023-11-27T05:42:16.872Z,0.35
2023-11-27T05:44:45.653Z,0.28
2023-11-27T05:47:15.153Z,0.38
2023-11-27T05:49:44.159Z,0.17
2023-11-27T05:52:13.004Z,0.45
2023-11-27T05:54:41.099Z,0.20
2023-11-27T05:57:09.810Z,0.20
2023-11-27T05:59:39.045Z,0.10
2023-11-27T06:02:07.160Z,0.03
2023-11-27T06:07:20.921Z,0.20
2023-11-27T06:09:48.988Z,0.22
2023-11-27T06:12:17.001Z,0.20
2023-11-27T06:14:45.029Z,0.20
2023-11-27T06:17:13.103Z,0.10
2023-11-27T06:19:41.396Z,0.30
2023-11-27T06:22:09.581Z,0.20
2023-11-27T06:24:38.201Z,0.25
2023-11-27T06:27:06.863Z,0.08
2023-11-27T06:32:22.366Z,0.10
2023-11-27T06:34:51.136Z,0.43
2023-11-27T06:37:19.856Z,0.50
2023-11-27T06:39:48.058Z,0.28
2023-11-27T06:42:16.246Z,0.22
2023-11-27T06:44:44.394Z,0.32
2023-11-27T06:47:12.504Z,0.20
2023-11-27T06:49:40.705Z,0.35
2023-11-27T06:52:08.713Z,0.22
2023-11-27T06:54:36.792Z,0.20
2023-11-27T06:57:05.161Z,0.13
2023-11-27T06:59:33.170Z,0.32
2023-11-27T07:02:01.476Z,0.30
2023-11-27T07:04:29.770Z,0.20
2023-11-27T07:06:57.901Z,0.00
2023-11-27T07:09:26.331Z,0.30
2023-11-27T07:11:54.761Z,0.40
2023-11-27T07:14:22.799Z,0.30
2023-11-27T07:16:51.201Z,0.17
2023-11-27T07:19:19.557Z,0.20
2023-11-27T07:21:47.558Z,0.20
2023-11-27T07:24:15.866Z,0.20
2023-11-27T07:26:44.817Z,0.20
2023-11-27T07:29:13.792Z,0.20
2023-11-27T07:31:41.903Z,0.50
2023-11-27T07:34:29.004Z,0.13
2023-11-27T07:36:57.116Z,0.13
2023-11-27T07:39:26.472Z,0.40
2023-11-27T07:41:54.754Z,0.50
2023-11-27T07:47:12.545Z,0.20
2023-11-27T07:49:40.877Z,0.20
2023-11-27T07:52:08.916Z,0.30
2023-11-27T07:54:37.324Z,0.47
2023-11-27T07:57:08.156Z,0.20
2023-11-27T07:59:36.393Z,0.17
2023-11-27T08:02:05.299Z,0.32
2023-11-27T08:04:35.326Z,0.20
2023-11-27T08:07:03.577Z,0.40
2023-11-27T08:09:31.698Z,0.20
2023-11-27T08:12:00.396Z,0.32
2023-11-27T08:14:28.418Z,0.28
2023-11-27T08:16:56.516Z,0.40
2023-11-27T08:19:24.708Z,0.20
2023-11-27T08:21:52.752Z,0.10
2023-11-27T08:24:21.598Z,0.10
2023-11-27T08:26:51.944Z,0.43
2023-11-27T08:29:21.489Z,0.10
2023-11-27T08:31:49.638Z,0.10
2023-11-27T08:34:17.779Z,0.25
2023-11-27T08:36:46.239Z,0.20
2023-11-27T08:39:15.605Z,0.15
2023-11-27T08:41:44.378Z,0.20
2023-11-27T08:44:12.438Z,0.30
2023-11-27T08:46:40.763Z,0.25
2023-11-27T08:49:08.940Z,0.30
2023-11-27T08:51:37.597Z,0.20
2023-11-27T08:54:05.753Z,0.47
2023-11-27T08:56:35.576Z,0.20
2023-11-27T08:59:03.833Z,0.20
2023-11-27T09:01:32.160Z,0.30
2023-11-27T09:04:00.651Z,0.10
2023-11-27T09:06:28.839Z,0.30
2023-11-27T09:08:57.445Z,0.25
2023-11-27T09:11:26.746Z,0.15
2023-11-27T09:13:55.058Z,0.20
2023-11-27T09:16:23.158Z,0.22
2023-11-27T09:18:51.270Z,0.30
2023-11-27T09:21:19.668Z,0.20
2023-11-27T09:23:47.606Z,0.00
2023-11-27T09:26:16.496Z,0.28
2023-11-27T09:28:44.807Z,0.30
2023-11-27T09:31:13.364Z,0.40
2023-11-27T09:33:41.555Z,0.28
2023-11-27T09:36:15.343Z,0.20
2023-11-27T09:38:43.523Z,0.32
2023-11-27T09:41:12.086Z,0.20
2023-11-27T09:43:40.423Z,0.47
2023-11-27T09:46:11.180Z,0.40
2023-11-27T09:48:41.761Z,0.60
2023-11-27T09:51:14.332Z,0.60
2023-11-27T09:53:53.163Z,0.55
2023-11-27T09:56:32.960Z,0.52
2023-11-27T09:59:02.846Z,0.75
2023-11-27T10:01:31.607Z,0.57
2023-11-27T10:04:07.802Z,0.35
2023-11-27T10:06:42.888Z,0.43
2023-11-27T10:09:15.097Z,0.60
2023-11-27T10:12:02.274Z,0.43
2023-11-27T10:14:37.688Z,0.65
2023-11-27T10:17:07.654Z,0.68
2023-11-27T10:19:41.213Z,0.70
2023-11-27T10:22:12.617Z,0.80
2023-11-27T10:24:40.719Z,0.63
2023-11-27T10:27:09.293Z,1.00
2023-11-27T10:29:55.733Z,0.98
2023-11-27T10:32:26.845Z,0.82
2023-11-27T10:34:55.077Z,0.50
2023-11-27T10:37:24.131Z,0.77
2023-11-27T10:39:54.153Z,0.90
2023-11-27T10:42:50.296Z,0.45
2023-11-27T10:45:25.004Z,0.32
2023-11-27T10:47:58.224Z,0.32
2023-11-27T10:50:27.345Z,0.50
2023-11-27T10:52:57.240Z,1.52
2023-11-27T10:55:29.509Z,0.77
2023-11-27T10:57:58.113Z,0.82
2023-11-27T11:00:40.934Z,0.60
2023-11-27T11:06:10.270Z,0.38
2023-11-27T11:08:40.185Z,0.63
2023-11-27T11:11:08.937Z,0.28
2023-11-27T11:13:37.137Z,0.65
2023-11-27T11:16:33.311Z,0.20
2023-11-27T11:19:12.559Z,0.10
2023-11-27T11:22:09.851Z,0.40
2023-11-27T11:24:55.706Z,0.57
2023-11-27T11:27:36.353Z,0.25
2023-11-27T11:30:08.024Z,0.32
2023-11-27T11:32:38.281Z,0.30
2023-11-27T11:35:12.605Z,0.40
2023-11-27T11:37:48.893Z,1.25
2023-11-27T11:40:19.426Z,0.60
2023-11-27T11:42:49.701Z,0.57
2023-11-27T11:45:19.091Z,0.65
2023-11-27T11:47:53.747Z,0.70
2023-11-27T11:50:28.632Z,0.30
2023-11-27T11:53:07.212Z,0.43
2023-11-27T11:55:36.850Z,0.45
2023-11-27T12:01:03.246Z,0.30
2023-11-27T12:06:18.585Z,0.60
2023-11-27T12:08:47.516Z,0.20
2023-11-27T12:11:16.066Z,0.20
2023-11-27T12:13:45.442Z,0.40
2023-11-27T12:16:15.062Z,0.30
2023-11-27T12:18:45.799Z,0.50
2023-11-27T12:21:18.472Z,1.05
2023-11-27T12:23:49.812Z,1.60
2023-11-27T12:26:25.355Z,0.80
2023-11-27T12:28:54.771Z,0.80
2023-11-27T12:31:24.173Z,0.55
2023-11-27T12:33:53.279Z,0.30
2023-11-27T12:36:24.739Z,0.28
2023-11-27T12:38:56.064Z,0.50
2023-11-27T12:41:34.517Z,0.35
2023-11-27T12:44:09.956Z,0.47
2023-11-27T12:46:51.793Z,0.43
2023-11-27T12:49:25.844Z,0.45
2023-11-27T12:52:21.193Z,1.23
2023-11-27T12:54:55.778Z,0.50
2023-11-27T12:57:23.970Z,0.40
2023-11-27T12:59:51.998Z,0.15
2023-11-27T13:02:27.160Z,0.30
2023-11-27T13:04:56.107Z,0.20
2023-11-27T13:07:24.974Z,0.60
2023-11-27T13:09:54.202Z,0.60
2023-11-27T13:12:27.513Z,0.40
2023-11-27T13:14:55.810Z,0.38
2023-11-27T13:17:25.601Z,0.40
2023-11-27T13:19:57.911Z,0.30
2023-11-27T13:22:33.954Z,0.60
2023-11-27T13:25:07.923Z,0.47
2023-11-27T13:27:46.414Z,0.40
2023-11-27T13:30:28.623Z,0.40
2023-11-27T13:33:15.319Z,0.63
2023-11-27T13:35:45.883Z,0.40
2023-11-27T13:38:19.001Z,0.28
2023-11-27T13:40:51.301Z,0.50
2023-11-27T13:43:20.345Z,0.57
2023-11-27T13:45:52.609Z,0.40
2023-11-27T13:48:39.427Z,0.68
2023-11-27T13:51:16.874Z,0.30
2023-11-27T13:53:46.380Z,0.28
2023-11-27T13:56:23.813Z,5.20
2023-11-27T13:59:18.507Z,7.43
2023-11-27T14:01:46.644Z,2.67
2023-11-27T14:04:30.081Z,0.80
2023-11-27T14:07:00.778Z,0.50
2023-11-27T14:10:00.975Z,2.67
2023-11-27T14:12:30.377Z,2.05
2023-11-27T14:15:09.648Z,1.23
2023-11-27T14:17:40.547Z,0.25
2023-11-27T14:20:45.761Z,0.47
2023-11-27T14:23:24.608Z,0.22
2023-11-27T14:29:02.212Z,0.22
2023-11-27T14:31:31.536Z,0.85
2023-11-27T14:33:59.632Z,0.50
2023-11-27T14:36:30.421Z,0.20
2023-11-27T14:39:00.283Z,0.25
2023-11-27T14:41:29.808Z,0.28
2023-11-27T14:43:57.762Z,0.38
2023-11-27T14:49:16.812Z,0.30
2023-11-27T14:51:45.190Z,0.10
2023-11-27T14:54:16.579Z,0.30
2023-11-27T14:56:45.707Z,0.32
2023-11-27T14:59:14.322Z,0.22
2023-11-27T15:01:44.471Z,0.38
2023-11-27T15:04:16.354Z,0.60
2023-11-27T15:06:45.264Z,2.22
2023-11-27T15:09:23.753Z,1.58
2023-11-27T15:12:12.937Z,1.00
2023-11-27T15:14:41.576Z,0.70
2023-11-27T15:17:09.882Z,0.25
2023-11-27T15:19:38.039Z,0.57
2023-11-27T15:22:11.387Z,0.43
2023-11-27T15:24:39.615Z,0.40
2023-11-27T15:27:26.493Z,0.30
2023-11-27T15:29:54.465Z,0.75
2023-11-27T15:32:25.171Z,0.38
2023-11-27T15:34:56.311Z,0.70
2023-11-27T15:37:25.119Z,0.57
2023-11-27T15:39:53.831Z,0.30
2023-11-27T15:45:10.086Z,0.35
2023-11-27T15:47:38.537Z,0.38
2023-11-27T15:50:08.785Z,0.17
2023-11-27T15:52:37.333Z,0.20
2023-11-27T15:55:06.916Z,0.25
2023-11-27T15:57:35.442Z,0.40
2023-11-27T16:00:04.974Z,0.40
2023-11-27T16:02:41.661Z,0.38
2023-11-27T16:05:10.701Z,0.30
2023-11-27T16:07:41.756Z,0.40
2023-11-27T16:10:16.951Z,0.43
2023-11-27T16:12:45.312Z,0.32
2023-11-27T16:15:15.962Z,0.60
2023-11-27T16:20:21.360Z,2.17
2023-11-27T16:22:51.513Z,1.20
2023-11-27T16:25:19.865Z,0.60
2023-11-27T16:27:47.916Z,1.17
2023-11-27T16:30:20.706Z,1.50
2023-11-27T16:32:48.788Z,1.10
2023-11-27T16:35:21.379Z,0.30
2023-11-27T16:37:51.079Z,0.30
2023-11-27T16:40:21.119Z,0.30
2023-11-27T16:42:52.282Z,0.40
2023-11-27T16:45:25.909Z,0.40
2023-11-27T16:48:05.263Z,0.30
2023-11-27T16:50:35.732Z,0.60
2023-11-27T16:53:04.796Z,0.30
2023-11-27T16:55:33.315Z,0.38
2023-11-27T16:58:07.006Z,0.20
2023-11-27T17:00:38.403Z,0.28
2023-11-27T17:05:39.672Z,0.20
2023-11-27T17:08:17.990Z,0.30
2023-11-27T17:10:49.410Z,0.22
2023-11-27T17:16:03.010Z,0.30
2023-11-27T17:18:32.767Z,0.30
2023-11-27T17:21:01.445Z,0.40
2023-11-27T17:23:29.552Z,0.40
2023-11-27T17:25:58.031Z,0.55
2023-11-27T17:28:27.868Z,1.30
2023-11-27T17:33:42.933Z,0.30
2023-11-27T17:36:11.091Z,0.35
2023-11-27T17:38:39.185Z,0.60
2023-11-27T17:41:08.325Z,0.40
2023-11-27T17:43:36.348Z,1.73
2023-11-27T17:46:05.152Z,1.27
2023-11-27T17:48:33.665Z,0.70
2023-11-27T17:51:01.753Z,1.55
2023-11-27T17:53:29.779Z,1.30
2023-11-27T17:56:03.829Z,1.05
2023-11-27T17:58:33.180Z,1.17
2023-11-27T18:01:01.300Z,1.50
2023-11-27T18:03:30.189Z,1.35
2023-11-27T18:05:58.641Z,0.65
2023-11-27T18:08:28.258Z,0.73
2023-11-27T18:10:56.442Z,0.50
2023-11-27T18:13:24.796Z,1.60
2023-11-27T18:15:53.163Z,1.63
2023-11-27T18:18:21.326Z,1.02
2023-11-27T18:21:08.582Z,1.30
2023-11-27T18:23:36.613Z,1.05
2023-11-27T18:26:05.922Z,1.00
2023-11-27T18:28:34.762Z,0.80
2023-11-27T18:31:03.111Z,0.20
2023-11-27T18:33:31.158Z,0.20
2023-11-27T18:35:59.180Z,0.25
2023-11-27T18:38:27.645Z,0.43
2023-11-27T18:40:56.563Z,0.15
2023-11-27T18:43:28.178Z,0.32
2023-11-27T18:45:56.371Z,0.50
2023-11-27T18:48:24.483Z,0.20
2023-11-27T18:50:52.727Z,0.52
2023-11-27T18:53:20.728Z,0.73
2023-11-27T18:58:34.402Z,0.32
2023-11-27T19:01:02.539Z,0.32
2023-11-27T19:03:31.189Z,0.50
2023-11-27T19:05:59.198Z,0.30
2023-11-27T19:08:27.268Z,0.20
2023-11-27T19:10:55.695Z,0.20
2023-11-27T19:13:24.022Z,0.17
2023-11-27T19:15:57.187Z,0.30
2023-11-27T19:18:25.765Z,0.22
2023-11-27T19:20:54.872Z,0.45
2023-11-27T19:23:23.023Z,0.82
2023-11-27T19:25:51.206Z,0.57
2023-11-27T19:28:20.292Z,0.60
2023-11-27T19:30:49.665Z,0.45
2023-11-27T19:33:17.784Z,0.70
2023-11-27T19:35:45.908Z,0.30
2023-11-27T19:38:17.479Z,0.90
2023-11-27T19:40:45.637Z,0.32
2023-11-27T19:43:13.740Z,0.20
2023-11-27T19:45:41.814Z,0.45
2023-11-27T19:48:11.192Z,0.40
2023-11-27T19:50:39.670Z,0.25
2023-11-27T19:53:08.505Z,0.28
2023-11-27T19:55:38.580Z,0.60
2023-11-27T19:58:07.582Z,0.40
2023-11-27T20:00:54.130Z,0.40
2023-11-27T20:03:22.196Z,0.20
2023-11-27T20:05:50.291Z,0.28
2023-11-27T20:08:19.248Z,0.40
2023-11-27T20:10:47.337Z,0.22
2023-11-27T20:13:15.860Z,0.40
2023-11-27T20:15:43.926Z,0.20
2023-11-27T20:18:12.009Z,0.28
2023-11-27T20:20:44.706Z,0.20
2023-11-27T20:23:31.622Z,0.30
2023-11-27T20:26:18.243Z,0.13
2023-11-27T20:28:46.974Z,0.30
2023-11-27T20:31:26.403Z,0.40
2023-11-27T20:34:04.863Z,0.70
2023-11-27T20:36:34.357Z,0.40
2023-11-27T20:39:02.654Z,0.40
2023-11-27T20:41:49.267Z,0.22
2023-11-27T20:44:18.050Z,1.50
2023-11-27T20:46:46.202Z,1.05
2023-11-27T20:49:15.005Z,0.68
2023-11-27T20:51:43.037Z,0.73
2023-11-27T20:54:11.135Z,1.40
2023-11-27T20:56:39.412Z,0.57
2023-11-27T20:59:07.421Z,0.17
2023-11-27T21:01:35.723Z,0.25
2023-11-27T21:04:04.110Z,0.20
2023-11-27T21:06:32.175Z,0.10
2023-11-27T21:09:00.346Z,0.30
2023-11-27T21:11:28.502Z,0.43
2023-11-27T21:13:56.838Z,1.25
2023-11-27T21:16:27.765Z,1.50
2023-11-27T21:19:16.392Z,1.52
2023-11-27T21:21:44.440Z,0.40
2023-11-27T21:24:13.080Z,0.95
2023-11-27T21:26:41.188Z,0.20
2023-11-27T21:29:09.251Z,0.17
2023-11-27T21:31:37.421Z,0.20
2023-11-27T21:34:05.560Z,0.45
2023-11-27T21:36:33.835Z,0.30
2023-11-27T21:39:01.965Z,0.30
2023-11-27T21:41:31.124Z,0.40
2023-11-27T21:43:59.277Z,0.35
2023-11-27T21:46:27.463Z,0.30
2023-11-27T21:48:56.314Z,0.40
2023-11-27T21:51:25.315Z,0.20
2023-11-27T21:53:54.142Z,0.30
2023-11-27T21:56:22.169Z,0.85
2023-11-27T21:58:50.310Z,0.22
2023-11-27T22:01:18.451Z,0.35
2023-11-27T22:03:46.997Z,0.20
2023-11-27T22:06:15.360Z,0.20
2023-11-27T22:08:43.508Z,0.20
2023-11-27T22:11:11.587Z,0.35
2023-11-27T22:13:39.625Z,0.43
2023-11-27T22:16:08.203Z,0.32
2023-11-27T22:18:36.303Z,0.22
2023-11-27T22:21:04.396Z,0.22
2023-11-27T22:23:32.489Z,0.40
2023-11-27T22:26:00.523Z,0.25
2023-11-27T22:28:28.656Z,0.20
2023-11-27T22:30:56.687Z,0.25
2023-11-27T22:33:42.997Z,0.30
2023-11-27T22:36:11.469Z,0.13
2023-11-27T22:38:40.588Z,0.20
2023-11-27T22:41:08.564Z,0.47
2023-11-27T22:43:36.634Z,0.20
2023-11-27T22:46:05.710Z,0.28
2023-11-27T22:48:35.545Z,0.28
2023-11-27T22:51:03.678Z,0.25
2023-11-27T22:53:31.762Z,0.20
2023-11-27T22:55:59.909Z,0.30
2023-11-27T22:58:28.887Z,0.30
2023-11-27T23:00:56.967Z,0.30
2023-11-27T23:03:43.691Z,0.30
2023-11-27T23:06:22.632Z,0.20
2023-11-27T23:08:57.555Z,0.20
2023-11-27T23:11:25.598Z,0.20
2023-11-27T23:13:54.097Z,0.28
2023-11-27T23:16:22.206Z,0.38
2023-11-27T23:18:50.349Z,0.20
2023-11-27T23:21:18.425Z,0.30
2023-11-27T23:23:46.521Z,0.40
2023-11-27T23:26:14.631Z,0.20
2023-11-27T23:28:42.802Z,0.40
2023-11-27T23:31:11.108Z,0.20
2023-11-27T23:33:39.233Z,0.50
2023-11-27T23:36:08.081Z,0.32
2023-11-27T23:38:36.386Z,0.30
2023-11-27T23:41:04.820Z,0.40
2023-11-27T23:43:32.901Z,0.15
2023-11-27T23:46:01.039Z,0.30
2023-11-27T23:48:29.873Z,0.10
2023-11-27T23:50:57.929Z,0.22
2023-11-27T23:53:25.881Z,0.20
2023-11-27T23:55:54.452Z,0.20
2023-11-27T23:58:22.431Z,0.15
